createdAt,value
2018-03-31T00:02:20.813Z,77.59
2018-03-31T00:04:47.884Z,77.56
2018-03-31T00:07:14.977Z,77.50
2018-03-31T00:09:42.136Z,77.50
2018-03-31T00:12:09.280Z,77.47
2018-03-31T00:14:36.436Z,77.40
2018-03-31T00:17:03.527Z,77.36
2018-03-31T00:19:30.600Z,77.33
2018-03-31T00:21:57.778Z,77.39
2018-03-31T00:24:25.046Z,77.48
2018-03-31T00:26:52.183Z,77.45
2018-03-31T00:29:19.345Z,77.52
2018-03-31T00:31:46.435Z,77.57
2018-03-31T00:34:13.534Z,77.57
2018-03-31T00:36:40.792Z,77.55
2018-03-31T00:39:08.296Z,77.57
2018-03-31T00:41:35.471Z,77.51
2018-03-31T00:44:02.653Z,77.59
2018-03-31T00:46:29.841Z,77.69
2018-03-31T00:48:56.994Z,77.71
2018-03-31T00:51:24.089Z,77.69
2018-03-31T00:53:51.160Z,77.67
2018-03-31T00:56:18.308Z,77.61
2018-03-31T00:58:45.397Z,77.64
2018-03-31T01:01:12.488Z,77.59
2018-03-31T01:03:39.588Z,77.53
2018-03-31T01:06:06.658Z,77.57
2018-03-31T01:08:33.856Z,77.43
2018-03-31T01:11:01.009Z,77.39
2018-03-31T01:13:28.099Z,77.42
2018-03-31T01:15:55.204Z,77.41
2018-03-31T01:18:22.295Z,77.25
2018-03-31T01:20:49.404Z,77.23
2018-03-31T01:23:16.655Z,77.18
2018-03-31T01:25:43.907Z,77.02
2018-03-31T01:28:11.080Z,77.04
2018-03-31T01:30:38.316Z,76.99
2018-03-31T01:33:05.481Z,76.99
2018-03-31T01:35:32.551Z,76.98
2018-03-31T01:37:59.740Z,76.91
2018-03-31T01:40:26.806Z,76.89
2018-03-31T01:42:53.976Z,76.78
2018-03-31T01:45:21.116Z,76.65
2018-03-31T01:47:48.299Z,76.58
2018-03-31T01:50:15.621Z,76.54
2018-03-31T01:52:42.875Z,76.41
2018-03-31T01:55:09.944Z,76.34
2018-03-31T01:57:37.108Z,76.34
2018-03-31T02:00:04.261Z,76.23
2018-03-31T02:02:31.438Z,76.25
2018-03-31T02:04:58.584Z,76.20
2018-03-31T02:07:25.787Z,76.17
2018-03-31T02:09:52.941Z,76.08
2018-03-31T02:12:20.182Z,76.04
2018-03-31T02:14:47.333Z,75.97
2018-03-31T02:17:14.636Z,75.98
2018-03-31T02:19:41.840Z,75.98
2018-03-31T02:22:08.992Z,75.88
2018-03-31T02:24:36.141Z,75.96
2018-03-31T02:27:03.313Z,75.79
2018-03-31T02:29:30.493Z,75.69
2018-03-31T02:31:57.644Z,75.69
2018-03-31T02:34:24.817Z,75.69
2018-03-31T02:36:51.969Z,75.69
2018-03-31T02:39:19.157Z,75.68
2018-03-31T02:41:46.409Z,75.64
2018-03-31T02:44:13.665Z,75.55
2018-03-31T02:46:40.814Z,75.50
2018-03-31T02:49:07.993Z,75.56
2018-03-31T02:51:35.145Z,75.47
2018-03-31T02:54:02.228Z,75.49
2018-03-31T02:56:29.377Z,75.46
2018-03-31T02:58:56.549Z,75.44
2018-03-31T03:01:23.718Z,75.42
2018-03-31T03:03:50.888Z,75.37
2018-03-31T03:06:18.035Z,75.33
2018-03-31T03:08:45.274Z,75.33
2018-03-31T03:11:12.420Z,75.37
2018-03-31T03:13:39.589Z,75.32
2018-03-31T03:16:06.729Z,75.28
2018-03-31T03:18:33.820Z,75.31
2018-03-31T03:21:00.917Z,75.30
2018-03-31T03:23:28.076Z,75.24
2018-03-31T03:25:55.217Z,75.26
2018-03-31T03:28:22.388Z,75.21
2018-03-31T03:30:49.457Z,75.27
2018-03-31T03:33:16.549Z,75.27
2018-03-31T03:35:43.688Z,75.29
2018-03-31T03:38:10.881Z,75.37
2018-03-31T03:40:38.028Z,75.45
2018-03-31T03:43:05.175Z,75.51
2018-03-31T03:45:32.329Z,75.49
2018-03-31T03:47:59.504Z,75.56
2018-03-31T03:50:26.658Z,75.59
2018-03-31T03:52:53.893Z,75.61
2018-03-31T03:55:21.132Z,75.53
2018-03-31T03:57:48.692Z,75.62
2018-03-31T04:00:15.835Z,75.58
2018-03-31T04:02:42.979Z,75.62
2018-03-31T04:05:10.149Z,75.49
2018-03-31T04:07:37.300Z,75.52
2018-03-31T04:10:04.473Z,75.55
2018-03-31T04:12:31.621Z,75.56
2018-03-31T04:14:58.793Z,75.49
2018-03-31T04:17:26.009Z,75.55
2018-03-31T04:19:53.180Z,75.49
2018-03-31T04:22:20.327Z,75.46
2018-03-31T04:24:47.562Z,75.39
2018-03-31T04:27:14.708Z,75.36
2018-03-31T04:29:41.880Z,75.29
2018-03-31T04:32:09.059Z,75.32
2018-03-31T04:34:36.268Z,75.20
2018-03-31T04:37:03.422Z,75.13
2018-03-31T04:39:30.601Z,75.01
2018-03-31T04:41:57.820Z,74.89
2018-03-31T04:44:25.072Z,74.94
2018-03-31T04:46:52.214Z,74.79
2018-03-31T04:49:19.385Z,74.78
2018-03-31T04:51:46.532Z,74.78
2018-03-31T04:54:13.784Z,74.76
2018-03-31T04:56:40.924Z,74.71
2018-03-31T04:59:08.084Z,74.61
2018-03-31T05:01:35.227Z,74.55
2018-03-31T05:04:02.396Z,74.42
2018-03-31T05:06:29.536Z,74.40
2018-03-31T05:08:56.704Z,74.33
2018-03-31T05:11:23.940Z,74.37
2018-03-31T05:13:51.105Z,74.25
2018-03-31T05:16:18.257Z,74.09
2018-03-31T05:18:45.424Z,74.03
2018-03-31T05:21:12.493Z,74.02
2018-03-31T05:23:39.673Z,73.89
2018-03-31T05:26:06.825Z,73.66
2018-03-31T05:28:34.010Z,73.57
2018-03-31T05:31:01.160Z,73.63
2018-03-31T05:33:28.305Z,73.48
2018-03-31T05:35:55.544Z,73.42
2018-03-31T05:38:22.797Z,73.32
2018-03-31T05:40:49.889Z,73.23
2018-03-31T05:43:17.040Z,73.30
2018-03-31T05:45:44.252Z,73.24
2018-03-31T05:48:11.513Z,73.15
2018-03-31T05:50:38.680Z,73.01
2018-03-31T05:53:05.909Z,73.13
2018-03-31T05:55:33.062Z,73.04
2018-03-31T05:58:00.124Z,72.90
2018-03-31T06:00:27.260Z,73.01
2018-03-31T06:02:54.326Z,72.84
2018-03-31T06:05:21.505Z,72.91
2018-03-31T06:07:48.653Z,72.93
2018-03-31T06:10:15.748Z,72.63
2018-03-31T06:12:42.913Z,72.47
2018-03-31T06:15:10.061Z,72.49
2018-03-31T06:17:37.129Z,72.30
2018-03-31T06:20:04.260Z,72.23
2018-03-31T06:22:31.409Z,72.09
2018-03-31T06:24:58.569Z,72.00
2018-03-31T06:27:25.648Z,71.89
2018-03-31T06:29:52.741Z,71.78
2018-03-31T06:32:19.820Z,71.62
2018-03-31T06:34:47.809Z,71.75
2018-03-31T06:37:14.872Z,71.61
2018-03-31T06:39:41.957Z,71.57
2018-03-31T06:42:09.036Z,71.50
2018-03-31T06:44:36.133Z,71.56
2018-03-31T06:47:03.272Z,71.44
2018-03-31T06:49:30.361Z,71.40
2018-03-31T06:51:57.429Z,71.25
2018-03-31T06:54:24.525Z,71.10
2018-03-31T06:56:51.592Z,70.93
2018-03-31T06:59:18.676Z,70.79
2018-03-31T07:01:45.828Z,70.68
2018-03-31T07:04:12.900Z,70.40
2018-03-31T07:06:40.029Z,70.39
2018-03-31T07:09:07.235Z,70.38
2018-03-31T07:11:34.427Z,70.48
2018-03-31T07:14:01.492Z,70.15
2018-03-31T07:16:28.626Z,70.32
2018-03-31T07:18:55.699Z,70.08
2018-03-31T07:21:22.797Z,70.04
2018-03-31T07:23:49.876Z,70.27
2018-03-31T07:26:16.964Z,70.20
2018-03-31T07:28:44.033Z,70.14
2018-03-31T07:31:11.128Z,70.05
2018-03-31T07:33:38.188Z,70.06
2018-03-31T07:36:05.277Z,70.27
2018-03-31T07:38:32.376Z,69.90
2018-03-31T07:40:59.464Z,69.84
2018-03-31T07:43:26.534Z,69.89
2018-03-31T07:45:53.629Z,69.86
2018-03-31T07:48:20.700Z,69.90
2018-03-31T07:50:47.788Z,69.85
2018-03-31T07:53:14.858Z,69.80
2018-03-31T07:55:41.952Z,69.58
2018-03-31T07:58:09.020Z,69.45
2018-03-31T08:00:36.220Z,69.47
2018-03-31T08:03:03.280Z,69.52
2018-03-31T08:05:30.373Z,69.45
2018-03-31T08:07:57.440Z,69.02
2018-03-31T08:10:24.527Z,68.80
2018-03-31T08:12:51.674Z,68.79
2018-03-31T08:15:18.820Z,68.42
2018-03-31T08:17:45.904Z,68.22
2018-03-31T08:20:13.189Z,68.48
2018-03-31T08:22:40.277Z,68.25
2018-03-31T08:25:07.356Z,67.99
2018-03-31T08:27:34.477Z,68.04
2018-03-31T08:30:01.553Z,68.06
2018-03-31T08:32:28.652Z,67.94
2018-03-31T08:34:55.728Z,67.99
2018-03-31T08:37:22.825Z,68.12
2018-03-31T08:39:49.897Z,68.46
2018-03-31T08:42:16.992Z,68.37
2018-03-31T08:44:44.117Z,68.33
2018-03-31T08:47:11.247Z,68.32
2018-03-31T08:49:38.300Z,68.23
2018-03-31T08:52:05.470Z,68.30
2018-03-31T08:54:32.578Z,68.30
2018-03-31T08:56:59.772Z,68.10
2018-03-31T08:59:26.921Z,68.19
2018-03-31T09:01:54.072Z,68.08
2018-03-31T09:04:21.224Z,68.24
2018-03-31T09:06:48.317Z,68.40
2018-03-31T09:09:15.420Z,68.26
2018-03-31T09:11:42.504Z,68.57
2018-03-31T09:14:09.576Z,68.60
2018-03-31T09:16:36.681Z,68.50
2018-03-31T09:19:03.827Z,68.19
2018-03-31T09:21:30.982Z,68.50
2018-03-31T09:23:58.061Z,68.59
2018-03-31T09:26:25.163Z,68.78
2018-03-31T09:28:52.232Z,68.78
2018-03-31T09:31:19.373Z,68.54
2018-03-31T09:33:46.475Z,68.40
2018-03-31T09:36:13.562Z,68.45
2018-03-31T09:38:40.726Z,68.43
2018-03-31T09:41:07.872Z,68.32
2018-03-31T09:43:35.026Z,68.31
2018-03-31T09:46:02.105Z,68.41
2018-03-31T09:48:29.214Z,68.27
2018-03-31T09:50:56.284Z,68.12
2018-03-31T09:53:23.376Z,68.41
2018-03-31T09:55:50.469Z,68.23
2018-03-31T09:58:17.565Z,68.27
2018-03-31T10:00:44.637Z,68.39
2018-03-31T10:03:11.738Z,68.48
2018-03-31T10:05:38.867Z,68.18
2018-03-31T10:08:05.965Z,68.59
2018-03-31T10:10:33.036Z,68.60
2018-03-31T10:13:00.145Z,68.52
2018-03-31T10:15:27.269Z,68.22
2018-03-31T10:17:54.373Z,68.19
2018-03-31T10:20:21.445Z,68.13
2018-03-31T10:22:48.861Z,68.26
2018-03-31T10:25:15.972Z,68.46
2018-03-31T10:27:43.066Z,68.21
2018-03-31T10:30:10.175Z,68.16
2018-03-31T10:32:37.320Z,68.13
2018-03-31T10:35:04.476Z,68.00
2018-03-31T10:37:31.568Z,68.05
2018-03-31T10:39:58.672Z,67.84
2018-03-31T10:42:25.824Z,67.86
2018-03-31T10:44:52.976Z,67.55
2018-03-31T10:47:20.124Z,67.65
2018-03-31T10:49:47.192Z,67.62
2018-03-31T10:52:14.287Z,67.40
2018-03-31T10:54:41.377Z,67.75
2018-03-31T10:57:08.525Z,68.01
2018-03-31T10:59:35.626Z,68.18
2018-03-31T11:02:02.724Z,68.03
2018-03-31T11:04:29.821Z,68.16
2018-03-31T11:06:56.901Z,68.39
2018-03-31T11:09:24.076Z,68.48
2018-03-31T11:11:51.231Z,68.63
2018-03-31T11:14:18.362Z,69.20
2018-03-31T11:16:45.437Z,68.35
2018-03-31T11:19:12.561Z,68.56
2018-03-31T11:21:39.632Z,68.45
2018-03-31T11:24:06.777Z,68.48
2018-03-31T11:26:33.929Z,68.39
2018-03-31T11:29:01.032Z,68.26
2018-03-31T11:31:28.111Z,68.67
2018-03-31T11:33:55.276Z,68.76
2018-03-31T11:36:22.348Z,69.34
2018-03-31T11:38:49.444Z,69.45
2018-03-31T11:41:16.515Z,69.57
2018-03-31T11:43:43.668Z,70.11
2018-03-31T11:46:10.736Z,70.83
2018-03-31T11:48:37.872Z,70.42
2018-03-31T11:51:05.025Z,70.74
2018-03-31T11:53:32.178Z,70.84
2018-03-31T11:55:59.257Z,70.27
2018-03-31T11:58:26.361Z,70.27
2018-03-31T12:00:53.466Z,70.16
2018-03-31T12:03:20.583Z,69.82
2018-03-31T12:05:47.660Z,69.46
2018-03-31T12:08:14.761Z,69.67
2018-03-31T12:10:41.921Z,69.56
2018-03-31T12:13:09.148Z,69.89
2018-03-31T12:15:36.329Z,69.76
2018-03-31T12:18:03.518Z,69.84
2018-03-31T12:20:30.588Z,69.79
2018-03-31T12:22:57.708Z,70.12
2018-03-31T12:25:24.804Z,70.06
2018-03-31T12:27:51.936Z,70.15
2018-03-31T12:30:19.045Z,70.48
2018-03-31T12:32:46.182Z,70.81
2018-03-31T12:35:13.272Z,70.98
2018-03-31T12:37:40.372Z,71.27
2018-03-31T12:40:07.529Z,71.50
2018-03-31T12:42:34.683Z,72.21
2018-03-31T12:45:01.863Z,72.58
2018-03-31T12:47:28.984Z,73.31
2018-03-31T12:49:56.160Z,73.81
2018-03-31T12:52:23.248Z,74.39
2018-03-31T12:54:50.373Z,75.00
2018-03-31T12:57:17.481Z,75.47
2018-03-31T12:59:44.581Z,75.74
2018-03-31T13:02:11.644Z,76.01
2018-03-31T13:04:38.756Z,76.57
2018-03-31T13:07:05.887Z,76.76
2018-03-31T13:09:32.984Z,76.90
2018-03-31T13:12:00.048Z,76.83
2018-03-31T13:14:27.137Z,77.16
2018-03-31T13:16:54.276Z,77.42
2018-03-31T13:19:21.365Z,78.12
2018-03-31T13:21:48.436Z,78.23
2018-03-31T13:24:15.628Z,78.03
2018-03-31T13:26:42.696Z,78.03
2018-03-31T13:29:09.838Z,77.96
2018-03-31T13:31:36.911Z,78.11
2018-03-31T13:34:04.028Z,78.37
2018-03-31T13:36:31.185Z,78.50
2018-03-31T13:38:58.328Z,78.41
2018-03-31T13:41:25.396Z,78.55
2018-03-31T13:43:52.532Z,78.46
2018-03-31T13:46:19.681Z,78.17
2018-03-31T13:48:46.764Z,78.45
2018-03-31T13:51:13.834Z,78.99
2018-03-31T13:53:40.927Z,78.99
2018-03-31T13:56:08.016Z,79.06
2018-03-31T13:58:35.135Z,79.16
2018-03-31T14:01:03.068Z,79.09
2018-03-31T14:03:30.148Z,79.41
2018-03-31T14:05:57.296Z,79.38
2018-03-31T14:08:24.365Z,79.18
2018-03-31T14:10:51.492Z,79.25
2018-03-31T14:13:18.565Z,79.22
2018-03-31T14:15:45.657Z,79.13
2018-03-31T14:18:12.730Z,79.37
2018-03-31T14:20:39.824Z,79.42
2018-03-31T14:23:06.899Z,79.53
2018-03-31T14:25:34.102Z,79.38
2018-03-31T14:28:01.249Z,79.46
2018-03-31T14:30:28.396Z,79.48
2018-03-31T14:32:55.459Z,79.42
2018-03-31T14:35:22.548Z,79.08
2018-03-31T14:37:49.622Z,79.56
2018-03-31T14:40:16.716Z,79.46
2018-03-31T14:42:43.853Z,79.27
2018-03-31T14:45:10.993Z,79.22
2018-03-31T14:47:38.069Z,79.31
2018-03-31T14:50:05.156Z,79.29
2018-03-31T14:52:32.249Z,79.45
2018-03-31T14:54:59.337Z,79.36
2018-03-31T14:57:26.404Z,79.35
2018-03-31T14:59:53.493Z,79.42
2018-03-31T15:02:20.565Z,79.68
2018-03-31T15:04:47.656Z,79.13
2018-03-31T15:07:14.738Z,79.30
2018-03-31T15:09:41.891Z,79.22
2018-03-31T15:12:08.960Z,79.48
2018-03-31T15:14:37.729Z,79.29
2018-03-31T15:17:04.796Z,79.37
2018-03-31T15:19:31.928Z,79.61
2018-03-31T15:21:59.022Z,79.42
2018-03-31T15:24:26.092Z,79.68
2018-03-31T15:26:53.181Z,79.48
2018-03-31T15:29:20.329Z,79.62
2018-03-31T15:31:47.426Z,79.65
2018-03-31T15:34:14.500Z,79.82
2018-03-31T15:36:41.677Z,79.67
2018-03-31T15:39:08.824Z,79.71
2018-03-31T15:41:35.913Z,79.72
2018-03-31T15:44:03.029Z,79.80
2018-03-31T15:46:30.126Z,79.86
2018-03-31T15:48:57.192Z,79.80
2018-03-31T15:51:24.285Z,79.81
2018-03-31T15:53:51.421Z,79.88
2018-03-31T15:56:18.512Z,79.98
2018-03-31T15:58:45.620Z,79.98
2018-03-31T16:01:12.772Z,80.06
2018-03-31T16:03:39.930Z,80.00
2018-03-31T16:06:07.029Z,80.00
2018-03-31T16:08:34.092Z,80.19
2018-03-31T16:11:01.185Z,79.96
2018-03-31T16:13:28.253Z,80.01
2018-03-31T16:15:55.340Z,80.05
2018-03-31T16:18:22.414Z,79.91
2018-03-31T16:20:49.567Z,79.76
2018-03-31T16:23:16.725Z,79.89
2018-03-31T16:25:43.876Z,79.95
2018-03-31T16:28:10.954Z,79.94
2018-03-31T16:30:38.072Z,80.18
2018-03-31T16:33:05.233Z,80.20
2018-03-31T16:35:32.329Z,80.67
2018-03-31T16:37:59.401Z,80.44
2018-03-31T16:40:26.472Z,80.16
2018-03-31T16:42:53.621Z,80.29
2018-03-31T16:45:20.772Z,80.10
2018-03-31T16:47:47.870Z,80.17
2018-03-31T16:50:14.937Z,80.07
2018-03-31T16:52:42.120Z,79.87
2018-03-31T16:55:09.198Z,79.89
2018-03-31T16:57:36.292Z,80.12
2018-03-31T17:00:03.364Z,80.04
2018-03-31T17:02:30.453Z,80.09
2018-03-31T17:04:57.535Z,80.18
2018-03-31T17:07:24.729Z,80.33
2018-03-31T17:09:51.797Z,80.29
2018-03-31T17:12:18.892Z,80.43
2018-03-31T17:14:46.072Z,80.57
2018-03-31T17:17:13.218Z,80.46
2018-03-31T17:19:40.284Z,80.43
2018-03-31T17:22:07.424Z,80.48
2018-03-31T17:24:34.495Z,80.49
2018-03-31T17:27:01.584Z,80.59
2018-03-31T17:29:28.673Z,80.55
2018-03-31T17:31:55.764Z,80.64
2018-03-31T17:34:22.869Z,80.48
2018-03-31T17:36:50.069Z,80.54
2018-03-31T17:39:17.118Z,80.72
2018-03-31T17:41:44.209Z,80.92
2018-03-31T17:44:11.373Z,80.85
2018-03-31T17:46:38.460Z,80.87
2018-03-31T17:49:05.597Z,80.89
2018-03-31T17:54:01.825Z,80.86
2018-03-31T17:56:28.920Z,80.88
2018-03-31T17:58:56.016Z,80.84
2018-03-31T18:01:23.105Z,80.85
2018-03-31T18:03:50.172Z,80.91
2018-03-31T18:06:17.262Z,81.05
2018-03-31T18:08:44.328Z,81.05
2018-03-31T18:11:11.464Z,81.16
2018-03-31T18:13:38.552Z,81.30
2018-03-31T18:16:05.664Z,81.17
2018-03-31T18:18:32.753Z,81.11
2018-03-31T18:20:59.824Z,81.10
2018-03-31T18:23:26.921Z,81.17
2018-03-31T18:25:53.997Z,81.17
2018-03-31T18:28:21.084Z,81.16
2018-03-31T18:30:48.260Z,81.15
2018-03-31T18:33:15.349Z,81.26
2018-03-31T18:35:42.424Z,81.34
2018-03-31T18:38:09.608Z,81.38
2018-03-31T18:40:36.676Z,81.37
2018-03-31T18:43:03.790Z,81.42
2018-03-31T18:45:30.968Z,81.21
2018-03-31T18:47:58.052Z,81.33
2018-03-31T18:50:25.133Z,81.40
2018-03-31T18:52:52.242Z,81.43
2018-03-31T18:55:19.357Z,81.50
2018-03-31T18:57:46.446Z,81.45
2018-03-31T19:00:13.557Z,81.27
2018-03-31T19:02:40.712Z,81.46
2018-03-31T19:05:07.863Z,81.57
2018-03-31T19:07:34.940Z,81.64
2018-03-31T19:10:02.089Z,81.61
2018-03-31T19:12:29.168Z,81.72
2018-03-31T19:14:56.324Z,81.41
2018-03-31T19:17:23.421Z,81.61
2018-03-31T19:19:50.560Z,81.73
2018-03-31T19:22:17.682Z,81.71
2018-03-31T19:24:50.462Z,81.90
2018-03-31T19:27:18.137Z,81.80
2018-03-31T19:29:45.220Z,81.80
2018-03-31T19:32:12.455Z,81.82
2018-03-31T19:34:39.557Z,81.86
2018-03-31T19:37:06.620Z,81.93
2018-03-31T19:39:39.273Z,81.94
2018-03-31T19:42:06.345Z,81.94
2018-03-31T19:44:33.430Z,81.86
2018-03-31T19:47:00.498Z,81.92
2018-03-31T19:49:27.632Z,82.30
2018-03-31T19:51:54.703Z,82.06
2018-03-31T19:54:21.833Z,82.11
2018-03-31T19:56:48.893Z,82.04
2018-03-31T19:59:16.033Z,81.98
2018-03-31T20:01:43.192Z,81.95
2018-03-31T20:04:10.280Z,82.03
2018-03-31T20:06:37.384Z,82.15
2018-03-31T20:09:04.471Z,82.13
2018-03-31T20:11:31.580Z,82.20
2018-03-31T20:13:58.665Z,82.05
2018-03-31T20:16:25.778Z,82.17
2018-03-31T20:18:52.840Z,82.04
2018-03-31T20:21:19.982Z,82.10
2018-03-31T20:23:47.134Z,81.87
2018-03-31T20:26:14.219Z,81.83
2018-03-31T20:28:41.308Z,82.04
2018-03-31T20:31:08.484Z,82.22
2018-03-31T20:33:35.552Z,82.26
2018-03-31T20:36:02.689Z,82.22
2018-03-31T20:38:29.757Z,82.34
2018-03-31T20:40:56.880Z,82.28
2018-03-31T20:43:23.939Z,82.27
2018-03-31T20:45:51.021Z,82.14
2018-03-31T20:48:18.084Z,81.98
2018-03-31T20:50:45.173Z,81.94
2018-03-31T20:53:12.332Z,82.12
2018-03-31T20:55:39.416Z,81.98
2018-03-31T20:58:06.480Z,82.10
2018-03-31T21:00:33.574Z,82.12
2018-03-31T21:03:00.724Z,82.23
2018-03-31T21:05:27.877Z,82.30
2018-03-31T21:07:54.941Z,82.31
2018-03-31T21:10:22.056Z,82.30
2018-03-31T21:12:49.228Z,82.30
2018-03-31T21:15:16.314Z,82.28
2018-03-31T21:17:43.427Z,82.21
2018-03-31T21:20:10.521Z,82.14
2018-03-31T21:22:37.593Z,82.24
2018-03-31T21:25:04.680Z,82.22
2018-03-31T21:27:31.740Z,82.23
2018-03-31T21:29:58.829Z,82.16
2018-03-31T21:32:25.924Z,82.14
2018-03-31T21:34:53.072Z,82.14
2018-03-31T21:37:20.229Z,82.17
2018-03-31T21:39:47.376Z,82.08
2018-03-31T21:42:14.437Z,82.07
2018-03-31T21:44:41.532Z,82.18
2018-03-31T21:47:08.738Z,82.14
2018-03-31T21:49:35.804Z,82.12
2018-03-31T21:52:02.928Z,82.10
2018-03-31T21:54:30.009Z,82.18
2018-03-31T21:56:57.136Z,82.28
2018-03-31T21:59:24.202Z,82.02
2018-03-31T22:01:51.325Z,82.06
2018-03-31T22:04:18.385Z,82.10
2018-03-31T22:06:45.520Z,82.17
2018-03-31T22:09:12.677Z,82.15
2018-03-31T22:11:39.830Z,82.16
2018-03-31T22:14:12.526Z,82.01
2018-03-31T22:16:39.607Z,81.97
2018-03-31T22:19:06.698Z,81.99
2018-03-31T22:21:33.853Z,81.98
2018-03-31T22:24:00.924Z,82.09
2018-03-31T22:26:28.008Z,82.08
2018-03-31T22:28:55.085Z,82.08
2018-03-31T22:31:22.172Z,82.16
2018-03-31T22:33:49.242Z,82.14
2018-03-31T22:36:16.368Z,82.01
2018-03-31T22:38:43.432Z,82.00
2018-03-31T22:41:10.561Z,82.15
2018-03-31T22:43:37.700Z,82.15
2018-03-31T22:46:04.784Z,82.21
2018-03-31T22:48:31.852Z,82.11
2018-03-31T22:50:58.943Z,82.09
2018-03-31T22:53:26.106Z,81.92
2018-03-31T22:55:53.192Z,81.92
2018-03-31T22:58:20.264Z,81.99
2018-03-31T23:00:47.448Z,82.08
2018-03-31T23:03:14.523Z,82.04
2018-03-31T23:05:41.617Z,81.88
2018-03-31T23:08:08.676Z,81.70
2018-03-31T23:10:35.843Z,81.74
2018-03-31T23:13:02.996Z,81.67
2018-03-31T23:15:30.148Z,81.58
2018-03-31T23:17:57.212Z,81.52
2018-03-31T23:20:24.281Z,81.50
2018-03-31T23:22:51.396Z,81.37
2018-03-31T23:25:18.553Z,81.24
2018-03-31T23:27:45.645Z,81.12
2018-03-31T23:30:12.708Z,81.16
2018-03-31T23:32:39.905Z,80.97
2018-03-31T23:35:06.972Z,80.88
2018-03-31T23:37:34.096Z,81.07
2018-03-31T23:40:01.252Z,81.10
2018-03-31T23:42:28.341Z,80.90
2018-03-31T23:44:55.412Z,81.03
2018-03-31T23:47:22.496Z,81.21
2018-03-31T23:49:49.648Z,81.15
2018-03-31T23:52:16.736Z,81.24
2018-03-31T23:54:43.853Z,81.31
2018-03-31T23:57:10.940Z,81.24
2018-03-31T23:59:38.008Z,81.29
